Time;durP1;ratioP1;P1;durP2;ratioP2;P2;SDS_P1;SDS_P2;PMS_P1;PMS_P2;Temp;Humidity;BMP_temperature;BMP_pressure;BME280_temperature;BME280_humidity;BME280_pressure;Samples;Min_cycle;Max_cycle;Signal;HPM_P1;HPM_P2
2022/09/27 00:00:40;;;;;;;2.73;2.53;;;12.80;99.90;;;;;;5077906;28;20443;-79
2022/09/27 00:03:07;;;;;;;2.60;2.33;;;12.70;99.90;;;;;;5080453;28;20445;-78
2022/09/27 00:05:35;;;;;;;5.60;2.80;;;12.60;99.90;;;;;;5088647;28;20452;-78
2022/09/27 00:08:02;;;;;;;4.20;2.80;;;12.70;99.90;;;;;;5087654;28;20419;-77
2022/09/27 00:10:29;;;;;;;2.93;2.73;;;12.70;57.60;;;;;;5086055;28;20484;-76
2022/09/27 00:12:56;;;;;;;4.07;2.50;;;12.70;1.00;;;;;;5088299;28;20445;-79
2022/09/27 00:15:22;;;;;;;2.63;2.40;;;12.70;7.00;;;;;;5089190;28;20443;-79
2022/09/27 00:17:50;;;;;;;2.90;2.60;;;12.70;1.00;;;;;;5081491;28;20814;-79
2022/09/27 00:20:18;;;;;;;2.43;2.33;;;12.60;1.00;;;;;;5078066;28;20865;-79
2022/09/27 00:22:47;;;;;;;2.93;2.73;;;12.70;1.00;;;;;;5077694;28;20788;-79
2022/09/27 00:25:14;;;;;;;2.47;2.27;;;12.60;99.90;;;;;;5077031;28;20469;-79
2022/09/27 00:27:40;;;;;;;3.13;2.80;;;12.60;99.90;;;;;;5077545;28;20801;-79
2022/09/27 00:30:08;;;;;;;4.33;2.50;;;12.60;22.10;;;;;;5076813;28;20550;-79
2022/09/27 00:32:35;;;;;;;3.20;2.30;;;12.60;20.50;;;;;;5077825;28;20922;-79
2022/09/27 00:35:02;;;;;;;2.53;2.33;;;12.70;7.90;;;;;;5081175;28;20479;-79
2022/09/27 00:37:29;;;;;;;4.00;2.20;;;12.70;1.00;;;;;;5077980;28;20461;-79
2022/09/27 00:39:57;;;;;;;2.70;2.50;;;12.60;1.00;;;;;;5076274;28;20445;-79
2022/09/27 00:42:24;;;;;;;3.83;2.80;;;12.70;1.00;;;;;;5075787;28;20445;-77
2022/09/27 00:45:03;;;;;;;4.80;2.50;;;12.60;5.30;;;;;;5076395;28;20446;-79
2022/09/27 00:47:35;;;;;;;3.63;3.20;;;12.60;1.00;;;;;;5075569;28;20942;-79
2022/09/27 00:50:07;;;;;;;2.70;2.50;;;12.60;1.00;;;;;;5076338;28;20495;-80
2022/09/27 00:52:41;;;;;;;3.40;2.97;;;12.60;1.00;;;;;;5076576;28;20912;-79
2022/09/27 00:55:16;;;;;;;3.60;2.57;;;12.60;1.00;;;;;;5076975;28;20503;-79
2022/09/27 00:57:44;;;;;;;2.80;2.60;;;12.60;1.00;;;;;;5076580;28;20429;-79
2022/09/27 01:00:13;;;;;;;2.50;2.40;;;12.60;1.00;;;;;;5075858;28;20412;-77
2022/09/27 01:02:44;;;;;;;2.63;2.43;;;12.40;99.90;;;;;;5078835;28;20449;-78
2022/09/27 01:05:13;;;;;;;4.53;2.57;;;12.60;1.00;;;;;;5085271;22;20494;-75
2022/09/27 01:07:40;;;;;;;2.90;2.70;;;12.60;1.00;;;;;;5054018;28;20427;-75
2022/09/27 01:10:08;;;;;;;3.03;2.83;;;12.60;1.00;;;;;;5052898;28;20965;-75
2022/09/27 01:12:45;;;;;;;3.40;2.70;;;12.60;1.00;;;;;;5053267;28;20456;-74
2022/09/27 01:15:22;;;;;;;3.00;2.80;;;12.70;1.00;;;;;;5053043;28;20436;-75
2022/09/27 01:18:00;;;;;;;3.00;2.80;;;12.60;1.00;;;;;;5053146;28;20409;-75
2022/09/27 01:20:55;;;;;;;3.10;2.90;;;12.60;1.00;;;;;;5053336;28;20430;-76
2022/09/27 01:23:54;;;;;;;2.97;2.77;;;12.60;1.00;;;;;;5053127;28;20443;-76
2022/09/27 01:26:43;;;;;;;3.97;2.80;;;12.60;1.00;;;;;;5053887;28;20879;-76
2022/09/27 01:29:20;;;;;;;4.57;3.00;;;12.60;1.00;;;;;;5052850;28;20895;-76
2022/09/27 01:32:01;;;;;;;3.53;3.23;;;12.50;1.00;;;;;;5052751;28;20469;-76
2022/09/27 01:34:42;;;;;;;2.40;2.30;;;12.80;99.90;;;;;;5053901;28;20436;-76
2022/09/27 01:37:15;;;;;;;2.60;2.50;;;12.50;1.00;;;;;;5057101;28;20888;-75
2022/09/27 01:39:49;;;;;;;3.43;3.13;;;12.50;1.00;;;;;;5056958;28;20430;-75
2022/09/27 01:42:23;;;;;;;3.43;3.13;;;12.50;1.00;;;;;;5056949;28;20923;-75
2022/09/27 01:44:55;;;;;;;3.27;2.60;;;12.50;1.00;;;;;;5056916;28;20465;-75
2022/09/27 01:47:28;;;;;;;3.13;2.43;;;12.50;1.00;;;;;;5057128;28;20521;-74
2022/09/27 01:50:01;;;;;;;3.87;3.00;;;12.50;1.00;;;;;;5056942;28;20469;-76
2022/09/27 01:52:32;;;;;;;2.50;2.30;;;12.60;1.00;;;;;;5056839;28;20430;-76
2022/09/27 01:55:02;;;;;;;2.60;2.40;;;12.60;1.00;;;;;;5056962;28;20476;-76
2022/09/27 01:57:35;;;;;;;2.57;2.47;;;12.60;1.00;;;;;;5056956;28;20438;-76
2022/09/27 02:00:06;;;;;;;3.70;2.20;;;12.60;1.00;;;;;;5056444;28;20921;-76
2022/09/27 02:02:39;;;;;;;2.23;2.13;;;12.60;1.00;;;;;;5057002;28;20588;-76
2022/09/27 02:05:08;;;;;;;3.20;2.40;;;12.60;1.00;;;;;;5056376;28;20480;-76
2022/09/27 02:07:41;;;;;;;2.63;2.43;;;12.60;1.00;;;;;;5056512;28;20452;-75
2022/09/27 02:10:15;;;;;;;2.37;2.20;;;12.60;1.00;;;;;;5056839;28;20465;-76
2022/09/27 02:12:49;;;;;;;2.87;1.90;;;12.60;1.00;;;;;;5056454;28;20441;-76
2022/09/27 02:15:16;;;;;;;2.80;2.33;;;12.60;1.00;;;;;;5056449;28;20466;-76
2022/09/27 02:17:53;;;;;;;2.73;2.53;;;12.70;1.00;;;;;;5056656;28;20495;-76
2022/09/27 02:20:31;;;;;;;2.90;2.70;;;12.70;1.00;;;;;;5056539;28;20404;-76
2022/09/27 02:23:09;;;;;;;4.23;3.20;;;12.70;1.00;;;;;;5056234;28;20912;-75
2022/09/27 02:25:42;;;;;;;2.77;2.60;;;12.70;1.00;;;;;;5056244;28;20467;-76
2022/09/27 02:28:19;;;;;;;3.13;2.40;;;12.80;1.00;;;;;;5056384;28;20473;-76
2022/09/27 02:30:46;;;;;;;4.93;2.03;;;12.50;1.00;;;;;;5056728;28;20538;-75
2022/09/27 02:33:14;;;;;;;4.27;2.40;;;12.70;1.00;;;;;;5056686;28;20424;-76
2022/09/27 02:35:41;;;;;;;2.60;2.40;;;12.80;1.00;;;;;;5058056;28;20472;-76
2022/09/27 02:38:08;;;;;;;4.80;2.63;;;12.70;1.00;;;;;;5057133;28;20449;-76
2022/09/27 02:40:41;;;;;;;3.57;3.27;;;12.70;1.00;;;;;;5056902;28;20516;-75
2022/09/27 02:43:09;;;;;;;3.47;2.50;;;12.80;1.00;;;;;;5057530;28;20434;-76
2022/09/27 02:45:46;;;;;;;2.33;2.23;;;12.80;1.00;;;;;;5055394;28;20560;-76
2022/09/27 02:48:22;;;;;;;2.63;2.30;;;12.80;1.00;;;;;;5055824;28;20408;-76
2022/09/27 02:51:13;;;;;;;2.40;1.97;;;12.80;1.00;;;;;;5055762;28;20440;-75
2022/09/27 02:53:54;;;;;;;2.73;2.40;;;12.80;1.00;;;;;;5055783;28;20775;-76
2022/09/27 02:56:30;;;;;;;2.43;2.23;;;12.80;1.00;;;;;;5055666;28;20518;-76
2022/09/27 02:59:07;;;;;;;2.60;2.40;;;12.80;1.00;;;;;;5055695;28;20397;-75
2022/09/27 03:01:38;;;;;;;2.67;2.47;;;12.80;1.00;;;;;;5055398;28;20401;-75
2022/09/27 03:04:15;;;;;;;2.47;2.27;;;12.80;1.00;;;;;;5055694;28;20415;-75
2022/09/27 03:06:45;;;;;;;2.27;2.10;;;12.90;1.00;;;;;;5055605;28;20814;-76
2022/09/27 03:09:18;;;;;;;2.57;2.37;;;12.80;1.00;;;;;;5055780;28;20819;-75
2022/09/27 03:11:45;;;;;;;3.80;2.07;;;12.80;1.00;;;;;;5055404;28;20887;-75
2022/09/27 03:14:12;;;;;;;2.97;2.67;;;12.50;1.00;;;;;;5054993;28;20420;-76
2022/09/27 03:16:38;;;;;;;3.50;2.20;;;12.80;1.00;;;;;;5055373;28;20457;-75
2022/09/27 03:19:07;;;;;;;2.23;2.07;;;12.80;1.00;;;;;;5055230;28;20456;-76
2022/09/27 03:21:34;;;;;;;3.10;2.20;;;12.80;1.00;;;;;;5055206;28;20427;-76
2022/09/27 03:24:01;;;;;;;2.77;2.57;;;12.80;1.00;;;;;;5055180;28;20449;-75
2022/09/27 03:26:28;;;;;;;3.37;2.50;;;12.70;1.00;;;;;;5054798;28;20508;-75
2022/09/27 03:28:55;;;;;;;3.33;3.07;;;12.80;1.00;;;;;;5055055;28;20431;-75
2022/09/27 03:31:22;;;;;;;2.60;2.40;;;12.90;1.00;;;;;;5054829;28;20467;-76
2022/09/27 03:33:48;;;;;;;4.00;2.50;;;12.80;1.00;;;;;;5054933;28;20454;-75
2022/09/27 03:36:16;;;;;;;4.10;3.30;;;12.80;1.00;;;;;;5054844;28;20436;-76
2022/09/27 03:38:43;;;;;;;4.17;2.90;;;12.80;1.00;;;;;;5054791;28;20445;-75
2022/09/27 03:41:10;;;;;;;3.37;3.00;;;12.70;1.00;;;;;;5054840;28;20416;-76
2022/09/27 03:43:37;;;;;;;3.07;2.87;;;12.70;1.00;;;;;;5054568;28;20421;-75
2022/09/27 03:46:04;;;;;;;6.07;4.00;;;12.70;1.00;;;;;;5054858;28;20465;-76
2022/09/27 03:48:31;;;;;;;3.80;3.50;;;12.70;1.00;;;;;;5054744;28;20450;-75
2022/09/27 03:50:58;;;;;;;4.43;3.40;;;12.70;1.00;;;;;;5054623;28;20460;-76
2022/09/27 03:53:26;;;;;;;3.20;3.00;;;12.70;99.90;;;;;;5054728;28;20431;-76
2022/09/27 03:55:52;;;;;;;3.30;3.10;;;12.60;99.90;;;;;;5054586;28;20466;-75
2022/09/27 03:58:19;;;;;;;3.07;2.83;;;12.60;99.90;;;;;;5053965;28;20769;-77
2022/09/27 04:00:46;;;;;;;3.07;2.87;;;12.80;99.90;;;;;;5054439;28;20416;-76
2022/09/27 04:03:13;;;;;;;3.13;2.93;;;12.50;1.00;;;;;;5054935;28;20468;-75
2022/09/27 04:05:40;;;;;;;3.27;3.07;;;12.50;1.00;;;;;;5054113;28;20455;-75
2022/09/27 04:08:07;;;;;;;3.00;2.80;;;12.50;1.00;;;;;;5054322;28;20424;-76
2022/09/27 04:10:35;;;;;;;3.10;2.90;;;12.50;1.00;;;;;;5054140;28;20827;-75
2022/09/27 04:13:02;;;;;;;3.43;3.23;;;12.50;99.90;;;;;;5053950;28;20929;-74
2022/09/27 04:15:29;;;;;;;4.97;2.80;;;12.50;99.90;;;;;;5054078;28;20462;-76
2022/09/27 04:17:55;;;;;;;3.60;3.00;;;12.50;1.00;;;;;;5053904;28;20540;-75
2022/09/27 04:20:22;;;;;;;3.03;2.73;;;12.50;1.00;;;;;;5054107;28;20449;-75
2022/09/27 04:22:50;;;;;;;3.57;3.27;;;12.40;1.00;;;;;;5054206;28;20457;-75
2022/09/27 04:25:16;;;;;;;4.53;4.13;;;12.50;99.90;;;;;;5054049;28;20469;-75
2022/09/27 04:27:47;;;;;;;7.10;3.90;;;12.40;1.00;;;;;;5053975;28;20450;-76
2022/09/27 04:30:14;;;;;;;2.83;2.63;;;12.40;1.00;;;;;;5054027;28;20492;-76
2022/09/27 04:32:42;;;;;;;2.80;2.60;;;12.40;1.00;;;;;;5053949;28;20848;-76
2022/09/27 04:37:54;;;;;;;2.77;2.57;;;12.40;43.40;;;;;;5054571;28;20417;-76
2022/09/27 04:40:21;;;;;;;3.40;2.90;;;12.30;99.90;;;;;;5053999;28;20432;-76
2022/09/27 04:42:49;;;;;;;8.03;3.40;;;12.20;1.00;;;;;;5053651;28;20457;-76
2022/09/27 04:45:17;;;;;;;4.67;3.87;;;12.20;1.00;;;;;;5054005;28;20465;-76
2022/09/27 04:47:44;;;;;;;4.03;2.90;;;12.30;1.00;;;;;;5053497;28;20449;-75
2022/09/27 04:50:11;;;;;;;3.10;2.80;;;12.20;1.00;;;;;;5053487;28;20487;-76
2022/09/27 04:52:38;;;;;;;4.00;3.60;;;12.20;33.60;;;;;;5053551;28;20502;-76
2022/09/27 04:55:06;;;;;;;3.57;3.13;;;12.10;99.90;;;;;;5052996;28;20480;-75
2022/09/27 04:57:32;;;;;;;3.53;3.33;;;12.20;99.90;;;;;;5053312;28;20424;-75
2022/09/27 05:00:01;;;;;;;2.93;2.73;;;12.10;99.90;;;;;;5053341;28;20445;-74
2022/09/27 05:02:28;;;;;;;5.30;3.13;;;12.10;99.90;;;;;;5053374;28;20427;-75
2022/09/27 05:04:56;;;;;;;5.27;3.00;;;12.00;99.90;;;;;;5053140;28;20448;-75
2022/09/27 05:07:23;;;;;;;3.80;2.97;;;12.00;99.90;;;;;;5053259;28;20429;-75
2022/09/27 05:09:50;;;;;;;4.20;3.60;;;12.00;99.90;;;;;;5052746;28;20432;-76
2022/09/27 05:12:17;;;;;;;3.07;2.83;;;11.90;99.90;;;;;;5053020;28;20474;-76
2022/09/27 05:14:43;;;;;;;5.43;3.00;;;11.90;99.90;;;;;;5053282;28;20468;-76
2022/09/27 05:17:13;;;;;;;6.23;3.40;;;11.90;99.90;;;;;;5053718;28;20429;-75
2022/09/27 05:19:39;;;;;;;4.53;4.13;;;12.00;99.90;;;;;;5053773;28;20435;-75
2022/09/27 05:22:06;;;;;;;4.03;3.63;;;11.80;99.90;;;;;;5053293;28;20431;-75
2022/09/27 05:24:34;;;;;;;3.13;2.87;;;11.90;99.90;;;;;;5053070;28;20470;-74
2022/09/27 05:27:01;;;;;;;3.07;2.83;;;11.90;99.90;;;;;;5052745;28;20432;-76
2022/09/27 05:29:28;;;;;;;9.40;4.30;;;11.80;99.90;;;;;;5052623;28;20434;-76
2022/09/27 05:31:55;;;;;;;3.20;3.00;;;11.80;99.90;;;;;;5052571;28;20478;-76
2022/09/27 05:34:23;;;;;;;5.60;3.87;;;11.80;99.90;;;;;;5052371;28;20452;-75
2022/09/27 05:36:50;;;;;;;5.80;3.30;;;11.70;99.90;;;;;;5052605;28;20420;-76
2022/09/27 05:39:17;;;;;;;3.80;3.40;;;11.70;99.90;;;;;;5052953;28;20515;-76
2022/09/27 05:41:44;;;;;;;3.70;3.40;;;11.70;99.90;;;;;;5053316;28;20416;-75
2022/09/27 05:44:12;;;;;;;5.10;4.57;;;11.40;99.90;;;;;;5052335;28;20449;-76
2022/09/27 05:46:39;;;;;;;4.73;3.20;;;11.60;99.90;;;;;;5052678;28;20424;-76
2022/09/27 05:49:06;;;;;;;5.63;4.47;;;11.60;99.90;;;;;;5052705;28;20420;-75
2022/09/27 05:51:35;;;;;;;5.60;3.30;;;11.60;99.90;;;;;;5052663;28;20448;-76
2022/09/27 05:54:02;;;;;;;3.97;3.67;;;11.60;99.90;;;;;;5052920;28;20422;-75
2022/09/27 05:56:29;;;;;;;6.60;3.30;;;11.60;99.90;;;;;;5052335;28;20968;-76
2022/09/27 05:58:56;;;;;;;6.03;5.20;;;11.70;99.90;;;;;;5052541;28;20427;-75
2022/09/27 06:01:23;;;;;;;7.03;4.03;;;11.60;99.90;;;;;;5052642;28;20420;-76
2022/09/27 06:03:51;;;;;;;4.30;3.90;;;11.60;99.90;;;;;;5052234;28;20454;-76
2022/09/27 06:06:17;;;;;;;4.53;4.17;;;11.60;99.90;;;;;;5052579;28;20535;-76
2022/09/27 06:08:45;;;;;;;5.07;4.30;;;11.60;99.90;;;;;;5052862;28;20424;-75
2022/09/27 06:11:13;;;;;;;4.37;3.97;;;11.50;99.90;;;;;;5052502;28;20453;-75
2022/09/27 06:13:40;;;;;;;3.80;3.50;;;11.50;99.90;;;;;;5052612;28;20449;-76
2022/09/27 06:16:09;;;;;;;4.47;4.07;;;11.50;99.90;;;;;;5052460;28;20440;-76
2022/09/27 06:18:37;;;;;;;5.17;3.97;;;11.50;99.90;;;;;;5052380;28;20425;-75
2022/09/27 06:21:05;;;;;;;3.17;2.97;;;11.50;99.90;;;;;;5053849;28;20416;-77
2022/09/27 06:23:32;;;;;;;3.60;3.30;;;11.50;99.90;;;;;;5056049;28;20511;-75
2022/09/27 06:26:04;;;;;;;4.37;3.90;;;11.60;99.90;;;;;;5055978;28;20440;-76
2022/09/27 06:28:31;;;;;;;3.43;3.10;;;11.50;99.90;;;;;;5056230;28;20425;-75
2022/09/27 06:30:59;;;;;;;4.20;3.10;;;11.50;99.90;;;;;;5056133;28;20855;-76
2022/09/27 06:33:27;;;;;;;5.80;4.07;;;11.50;99.90;;;;;;5055910;28;20492;-75
2022/09/27 06:35:54;;;;;;;7.70;3.63;;;11.40;99.90;;;;;;5055655;28;20504;-76
2022/09/27 06:38:22;;;;;;;3.83;3.43;;;11.50;99.90;;;;;;5055706;28;20457;-75
2022/09/27 06:40:49;;;;;;;3.80;3.50;;;11.30;99.90;;;;;;5056199;28;20587;-76
2022/09/27 06:43:19;;;;;;;3.60;3.37;;;11.60;99.90;;;;;;5055478;28;20413;-75
2022/09/27 06:45:46;;;;;;;5.93;3.63;;;11.60;99.90;;;;;;5055488;28;20437;-76
2022/09/27 06:48:14;;;;;;;5.20;3.73;;;11.50;99.90;;;;;;5055751;28;20460;-76
2022/09/27 06:50:43;;;;;;;3.57;3.27;;;11.50;99.90;;;;;;5055751;28;20420;-76
2022/09/27 06:53:12;;;;;;;4.97;3.77;;;11.50;99.90;;;;;;5055515;28;20452;-76
2022/09/27 06:55:39;;;;;;;3.33;2.97;;;11.60;99.90;;;;;;5055657;28;20441;-76
2022/09/27 07:00:53;;;;;;;4.53;3.90;;;11.50;99.90;;;;;;5055472;28;20399;-76
2022/09/27 07:03:22;;;;;;;4.70;4.30;;;11.50;99.90;;;;;;5055987;28;20450;-76
2022/09/27 07:05:57;;;;;;;4.97;4.47;;;11.60;99.90;;;;;;5088335;22;20546;-79
2022/09/27 07:08:27;;;;;;;5.03;4.60;;;11.50;99.90;;;;;;5077110;28;20461;-79
2022/09/27 07:10:55;;;;;;;6.20;5.20;;;11.50;99.90;;;;;;5075348;28;20416;-78
2022/09/27 07:13:22;;;;;;;5.30;4.77;;;11.60;99.90;;;;;;5077338;28;20226;-79
2022/09/27 07:15:49;;;;;;;5.67;4.90;;;11.60;99.90;;;;;;5078258;28;20447;-79
2022/09/27 07:18:17;;;;;;;10.93;6.77;;;11.50;99.90;;;;;;5077489;28;20815;-79
2022/09/27 07:20:44;;;;;;;7.63;6.00;;;11.60;99.90;;;;;;5086540;28;20877;-78
2022/09/27 07:23:11;;;;;;;5.10;4.27;;;11.60;99.90;;;;;;5078547;28;20419;-78
2022/09/27 07:25:38;;;;;;;5.13;4.70;;;11.60;99.90;;;;;;5077595;28;20446;-80
2022/09/27 07:28:07;;;;;;;7.93;5.97;;;11.60;99.90;;;;;;5076543;28;20420;-79
2022/09/27 07:30:36;;;;;;;13.50;5.53;;;11.60;99.90;;;;;;5076896;28;20420;-78
2022/09/27 07:33:06;;;;;;;8.73;4.67;;;11.70;99.90;;;;;;5075928;28;20456;-77
2022/09/27 07:35:35;;;;;;;6.07;4.60;;;11.70;99.90;;;;;;5077639;28;20793;-78
2022/09/27 07:38:04;;;;;;;5.63;5.13;;;11.70;99.90;;;;;;5076620;28;20449;-78
2022/09/27 07:40:30;;;;;;;6.30;3.93;;;11.70;99.90;;;;;;5076644;28;20453;-79
2022/09/27 07:42:58;;;;;;;5.50;4.80;;;11.60;99.90;;;;;;5076988;28;20422;-79
2022/09/27 07:45:25;;;;;;;4.93;4.20;;;11.60;99.90;;;;;;5077019;28;20443;-79
2022/09/27 07:47:52;;;;;;;6.03;5.37;;;11.50;99.90;;;;;;5076998;28;20902;-78
2022/09/27 07:50:20;;;;;;;8.80;5.63;;;11.50;99.90;;;;;;5077541;28;20408;-78
2022/09/27 07:52:50;;;;;;;8.07;4.17;;;11.60;99.90;;;;;;5076821;28;20481;-78
2022/09/27 07:55:17;;;;;;;8.20;7.13;;;11.60;99.90;;;;;;5076914;28;20446;-77
2022/09/27 07:57:44;;;;;;;5.93;4.90;;;11.60;99.90;;;;;;5076522;28;20430;-80
2022/09/27 08:00:14;;;;;;;4.97;4.57;;;11.60;99.90;;;;;;5077016;28;20427;-78
2022/09/27 08:02:41;;;;;;;3.70;3.50;;;11.60;99.90;;;;;;5076798;28;20416;-79
2022/09/27 08:05:09;;;;;;;4.50;4.10;;;11.60;99.90;;;;;;5077391;28;20476;-79
2022/09/27 08:07:36;;;;;;;4.93;4.00;;;11.60;99.90;;;;;;5076709;28;20400;-78
2022/09/27 08:10:04;;;;;;;4.70;4.10;;;11.70;99.90;;;;;;5075743;28;20807;-79
2022/09/27 08:12:31;;;;;;;4.30;3.83;;;11.70;99.90;;;;;;5075252;28;20480;-78
2022/09/27 08:15:00;;;;;;;4.37;4.07;;;11.80;99.90;;;;;;5075193;28;20419;-78
2022/09/27 08:17:27;;;;;;;4.50;3.67;;;11.70;99.90;;;;;;5076887;28;20818;-78
2022/09/27 08:19:54;;;;;;;4.03;3.73;;;11.60;99.90;;;;;;5076482;28;20430;-77
2022/09/27 08:22:21;;;;;;;3.70;3.40;;;11.60;99.90;;;;;;5075843;28;20439;-77
2022/09/27 08:24:48;;;;;;;4.00;3.67;;;11.80;99.90;;;;;;5075548;28;20419;-79
2022/09/27 08:27:16;;;;;;;4.10;3.57;;;11.70;99.90;;;;;;5077414;28;20453;-78
2022/09/27 08:29:43;;;;;;;3.73;3.30;;;11.70;99.90;;;;;;5075583;28;20955;-78
2022/09/27 08:32:11;;;;;;;4.57;3.80;;;11.60;99.90;;;;;;5076460;28;20476;-77
2022/09/27 08:34:38;;;;;;;4.20;3.90;;;11.70;99.90;;;;;;5077112;28;20761;-76
2022/09/27 08:37:05;;;;;;;4.20;3.90;;;11.70;99.90;;;;;;5081625;28;20475;-77
2022/09/27 08:39:31;;;;;;;4.90;4.50;;;11.70;99.90;;;;;;5094191;28;20489;-78
2022/09/27 08:42:06;;;;;;;3.70;3.40;;;11.80;99.90;;;;;;5095230;28;20519;-77
2022/09/27 08:44:44;;;;;;;10.07;4.23;;;11.80;99.90;;;;;;5095760;28;20431;-77
2022/09/27 08:47:15;;;;;;;3.83;3.53;;;11.80;99.90;;;;;;5088708;28;20429;-76
2022/09/27 08:49:45;;;;;;;4.63;3.90;;;11.80;99.90;;;;;;5092944;28;20451;-79
2022/09/27 08:52:19;;;;;;;3.40;3.10;;;11.90;99.90;;;;;;5088335;28;20432;-78
2022/09/27 08:54:46;;;;;;;4.70;3.40;;;11.90;99.90;;;;;;5092405;28;20431;-79
2022/09/27 08:57:15;;;;;;;4.20;3.90;;;11.90;99.90;;;;;;5078772;28;20514;-79
2022/09/27 08:59:47;;;;;;;4.73;4.33;;;11.90;99.90;;;;;;5077653;28;20427;-78
2022/09/27 09:02:18;;;;;;;3.93;3.70;;;11.90;99.90;;;;;;5080857;28;20468;-79
2022/09/27 09:04:47;;;;;;;3.80;3.50;;;12.00;99.90;;;;;;5078153;28;20425;-79
2022/09/27 09:07:33;;;;;;;4.00;3.70;;;12.20;99.90;;;;;;5077465;28;20441;-78
2022/09/27 09:10:10;;;;;;;3.80;3.60;;;11.90;99.90;;;;;;5080448;28;20433;-78
2022/09/27 09:12:49;;;;;;;4.13;3.73;;;12.10;99.90;;;;;;5075576;28;20471;-78
2022/09/27 09:15:53;;;;;;;3.60;3.30;;;12.00;99.90;;;;;;5078476;28;20451;-76
2022/09/27 09:18:33;;;;;;;4.33;3.80;;;12.00;99.90;;;;;;5084070;28;20433;-77
2022/09/27 09:21:08;;;;;;;4.10;3.43;;;12.00;99.90;;;;;;5085815;28;20429;-76
2022/09/27 09:23:53;;;;;;;3.90;3.60;;;12.10;99.90;;;;;;5084348;28;20433;-77
2022/09/27 09:26:32;;;;;;;3.80;3.50;;;12.10;99.90;;;;;;5083863;28;20456;-78
2022/09/27 09:29:12;;;;;;;4.40;4.10;;;12.20;99.90;;;;;;5079002;28;20799;-78
2022/09/27 09:31:47;;;;;;;4.40;4.10;;;12.20;99.90;;;;;;5076356;28;20429;-79
2022/09/27 09:34:19;;;;;;;4.10;3.73;;;12.30;99.90;;;;;;5076599;28;20468;-78
2022/09/27 09:36:50;;;;;;;6.27;4.10;;;12.40;99.90;;;;;;5076476;28;20440;-79
2022/09/27 09:39:22;;;;;;;3.50;3.30;;;12.40;99.90;;;;;;5076743;28;20455;-79
2022/09/27 09:42:02;;;;;;;5.67;5.17;;;12.40;99.90;;;;;;5076365;28;20418;-79
2022/09/27 09:44:32;;;;;;;4.27;3.93;;;12.40;99.90;;;;;;5075741;28;20965;-77
2022/09/27 09:47:02;;;;;;;4.43;4.10;;;12.40;99.90;;;;;;5075008;28;20439;-80
2022/09/27 09:49:35;;;;;;;4.07;3.87;;;12.50;99.90;;;;;;5080179;28;20883;-78
2022/09/27 09:52:06;;;;;;;3.90;3.53;;;12.50;99.90;;;;;;5082339;28;20415;-78
2022/09/27 09:54:38;;;;;;;6.47;3.60;;;12.60;99.90;;;;;;5087643;28;20425;-78
2022/09/27 09:57:14;;;;;;;3.70;3.40;;;12.50;99.90;;;;;;5085791;28;20420;-79
2022/09/27 09:59:46;;;;;;;4.20;3.90;;;12.50;99.90;;;;;;5084428;28;20190;-78
2022/09/27 10:02:26;;;;;;;4.33;4.03;;;12.60;99.90;;;;;;5083874;28;20770;-79
2022/09/27 10:04:53;;;;;;;4.33;3.93;;;12.90;99.90;;;;;;5080390;28;20456;-78
2022/09/27 10:07:22;;;;;;;3.70;3.47;;;12.70;99.90;;;;;;5079423;28;20408;-78
2022/09/27 10:09:49;;;;;;;3.83;3.63;;;12.60;99.90;;;;;;5079040;28;20451;-79
2022/09/27 10:12:16;;;;;;;4.30;4.00;;;12.60;99.90;;;;;;5078901;28;20815;-78
2022/09/27 10:14:46;;;;;;;5.93;5.23;;;12.70;99.90;;;;;;5078747;28;20449;-79
2022/09/27 10:17:18;;;;;;;5.10;4.70;;;12.80;99.90;;;;;;5079182;28;20848;-78
2022/09/27 10:19:48;;;;;;;4.10;3.80;;;12.90;99.90;;;;;;5079362;28;20407;-78
2022/09/27 10:22:22;;;;;;;3.50;3.30;;;13.00;99.90;;;;;;5079691;28;20399;-78
2022/09/27 10:24:57;;;;;;;4.20;3.90;;;13.20;99.90;;;;;;5078272;28;20433;-78
2022/09/27 10:27:25;;;;;;;3.90;3.70;;;13.00;99.90;;;;;;5078911;28;20463;-78
2022/09/27 10:29:57;;;;;;;4.20;3.90;;;13.00;99.90;;;;;;5078345;28;20442;-80
2022/09/27 10:32:29;;;;;;;4.90;4.60;;;12.90;99.90;;;;;;5078477;28;20193;-79
2022/09/27 10:35:33;;;;;;;5.53;4.00;;;13.40;99.90;;;;;;5079284;28;20433;-79
2022/09/27 10:38:21;;;;;;;3.80;3.60;;;12.90;99.90;;;;;;5078632;28;20460;-80
2022/09/27 10:40:49;;;;;;;5.40;4.73;;;12.90;99.90;;;;;;5079374;28;20878;-79
2022/09/27 10:43:25;;;;;;;4.60;4.30;;;13.00;99.90;;;;;;5077639;28;20438;-79
2022/09/27 10:46:02;;;;;;;4.17;3.87;;;13.10;99.90;;;;;;5077710;28;20469;-76
2022/09/27 10:48:29;;;;;;;5.00;4.60;;;13.20;99.90;;;;;;5085481;28;20547;-76
2022/09/27 10:51:00;;;;;;;4.60;4.17;;;13.30;99.90;;;;;;5085292;28;20457;-78
2022/09/27 10:53:29;;;;;;;4.10;3.80;;;13.50;99.90;;;;;;5081537;28;20460;-80
2022/09/27 10:55:56;;;;;;;4.40;4.10;;;13.70;99.90;;;;;;5078583;28;20449;-79
2022/09/27 10:58:28;;;;;;;4.63;4.33;;;14.00;99.90;;;;;;5079378;28;20424;-79
2022/09/27 11:00:57;;;;;;;3.80;3.60;;;14.20;99.90;;;;;;5079489;28;20857;-78
2022/09/27 11:03:35;;;;;;;4.17;3.87;;;14.10;99.90;;;;;;5079726;28;20411;-77
2022/09/27 11:06:20;;;;;;;3.63;3.33;;;13.80;99.90;;;;;;5077858;28;20489;-80
2022/09/27 11:08:47;;;;;;;4.33;4.03;;;;;;;;;;5077936;28;20471;-79
2022/09/27 11:11:20;;;;;;;4.00;3.70;;;14.10;99.90;;;;;;5080078;28;20479;-79
2022/09/27 11:14:03;;;;;;;3.93;3.63;;;13.90;99.90;;;;;;5092391;28;20476;-78
2022/09/27 11:16:50;;;;;;;4.70;4.30;;;13.70;99.90;;;;;;5088912;28;20541;-77
2022/09/27 11:19:37;;;;;;;3.83;3.53;;;13.60;99.90;;;;;;5083558;28;20464;-77
2022/09/27 11:22:16;;;;;;;4.90;4.47;;;13.50;99.90;;;;;;5087243;28;20403;-78
2022/09/27 11:24:59;;;;;;;3.47;3.17;;;13.60;99.90;;;;;;5084278;28;20425;-77
2022/09/27 11:27:38;;;;;;;5.83;5.40;;;13.50;99.90;;;;;;5080737;28;20432;-79
2022/09/27 11:30:08;;;;;;;6.57;4.37;;;13.50;99.90;;;;;;5083637;28;20619;-78
2022/09/27 11:32:51;;;;;;;4.50;4.20;;;13.60;99.90;;;;;;5084680;28;20423;-78
2022/09/27 11:35:40;;;;;;;4.00;3.60;;;13.60;99.90;;;;;;5081768;28;20464;-78
2022/09/27 11:38:18;;;;;;;4.57;4.27;;;13.60;99.90;;;;;;5080622;28;20429;-78
2022/09/27 11:41:10;;;;;;;6.57;4.50;;;13.60;99.90;;;;;;5081087;28;20428;-79
2022/09/27 11:43:56;;;;;;;5.50;5.00;;;13.60;99.90;;;;;;5078817;28;20504;-79
2022/09/27 11:46:28;;;;;;;6.30;4.40;;;13.50;99.90;;;;;;5077851;28;20835;-79
2022/09/27 11:49:19;;;;;;;5.27;4.77;;;13.50;99.90;;;;;;5078183;28;20490;-79
2022/09/27 11:52:23;;;;;;;6.73;3.97;;;13.60;99.90;;;;;;5079614;28;20784;-79
2022/09/27 11:55:08;;;;;;;2.80;2.03;;;13.00;99.90;;;;;;5076042;28;20474;-77
2022/09/27 11:57:41;;;;;;;1.47;1.27;;;12.70;99.90;;;;;;5076035;28;20482;-78
2022/09/27 12:00:18;;;;;;;4.70;1.40;;;12.20;99.90;;;;;;5078145;28;20400;-78
2022/09/27 12:03:15;;;;;;;4.47;1.70;;;11.80;99.90;;;;;;5077546;28;20886;-77
2022/09/27 12:05:55;;;;;;;1.93;1.70;;;11.40;99.90;;;;;;5074524;28;20508;-76
2022/09/27 12:08:45;;;;;;;2.53;1.80;;;11.20;99.90;;;;;;5074725;28;20418;-76
2022/09/27 12:11:19;;;;;;;4.10;1.80;;;11.10;99.90;;;;;;5076952;28;20476;-75
2022/09/27 12:13:49;;;;;;;1.60;1.50;;;10.90;99.90;;;;;;5074365;28;20987;-77
2022/09/27 12:16:19;;;;;;;2.60;2.10;;;11.00;99.90;;;;;;5074196;28;20500;-77
2022/09/27 12:18:48;;;;;;;3.70;1.90;;;11.00;99.90;;;;;;5073949;28;20416;-77
2022/09/27 12:21:17;;;;;;;4.03;2.80;;;10.90;99.90;;;;;;5074615;28;20526;-77
2022/09/27 12:23:46;;;;;;;2.50;2.30;;;10.90;99.90;;;;;;5074478;28;20469;-77
2022/09/27 12:26:18;;;;;;;2.90;2.70;;;10.90;99.90;;;;;;5074275;28;20469;-77
2022/09/27 12:28:53;;;;;;;3.53;2.60;;;10.90;99.90;;;;;;5075178;28;20448;-77
2022/09/27 12:31:24;;;;;;;5.30;2.90;;;11.00;99.90;;;;;;5074888;28;20468;-77
2022/09/27 12:34:02;;;;;;;11.63;8.70;;;11.10;99.90;;;;;;5077268;28;20439;-77
2022/09/27 12:36:37;;;;;;;3.80;3.40;;;11.30;99.90;;;;;;5079882;28;20454;-78
2022/09/27 12:39:12;;;;;;;8.80;3.30;;;11.40;99.90;;;;;;5075118;28;20746;-77
2022/09/27 12:41:47;;;;;;;2.90;2.50;;;11.50;99.90;;;;;;5073956;28;20432;-76
2022/09/27 12:44:14;;;;;;;3.43;3.03;;;11.70;99.90;;;;;;5073679;28;20432;-78
2022/09/27 12:46:55;;;;;;;2.70;2.50;;;11.80;99.90;;;;;;5074267;28;20510;-77
2022/09/27 12:49:30;;;;;;;3.57;3.27;;;11.80;99.90;;;;;;5073985;28;20436;-76
2022/09/27 12:52:00;;;;;;;3.50;3.20;;;11.80;99.90;;;;;;5075531;28;20439;-77
2022/09/27 12:54:52;;;;;;;4.13;3.70;;;11.90;99.90;;;;;;5075141;28;20484;-78
2022/09/27 12:57:30;;;;;;;3.40;3.10;;;12.00;99.90;;;;;;5075367;28;20437;-78
2022/09/27 13:00:05;;;;;;;4.00;3.63;;;12.00;99.90;;;;;;5074670;28;20408;-77
2022/09/27 13:03:13;;;;;;;3.80;3.20;;;12.00;99.90;;;;;;5073453;28;20521;-77
2022/09/27 13:05:58;;;;;;;3.93;3.20;;;12.20;99.90;;;;;;5069846;22;20482;-75
2022/09/27 13:08:49;;;;;;;3.73;3.00;;;12.40;99.90;;;;;;5053818;28;20422;-73
2022/09/27 13:11:23;;;;;;;3.33;2.70;;;12.30;99.90;;;;;;5054083;28;20499;-73
2022/09/27 13:13:56;;;;;;;3.63;2.63;;;12.30;99.90;;;;;;5053217;28;20896;-73
2022/09/27 13:16:24;;;;;;;3.50;3.00;;;12.30;99.90;;;;;;5053562;28;20470;-74
2022/09/27 13:18:54;;;;;;;3.23;3.03;;;12.30;99.90;;;;;;5054193;28;20477;-73